sensor_id;sensor_type;location;lat;lon;timestamp;P1;durP1;ratioP1;P2;durP2;ratioP2
8885;SDS011;4479;51.162;13.906;2023-08-30T00:00:10;2.40;;;2.20;;
8885;SDS011;4479;51.162;13.906;2023-08-30T00:10:14;2.60;;;2.40;;
8885;SDS011;4479;51.162;13.906;2023-08-30T00:20:18;2.30;;;2.10;;
8885;SDS011;4479;51.162;13.906;2023-08-30T00:30:21;2.37;;;2.17;;
8885;SDS011;4479;51.162;13.906;2023-08-30T00:40:25;2.10;;;2.00;;
8885;SDS011;4479;51.162;13.906;2023-08-30T00:50:27;2.30;;;1.93;;
8885;SDS011;4479;51.162;13.906;2023-08-30T01:00:31;2.37;;;2.17;;
8885;SDS011;4479;51.162;13.906;2023-08-30T01:10:38;2.70;;;2.27;;
8885;SDS011;4479;51.162;13.906;2023-08-30T01:20:52;3.17;;;2.17;;
8885;SDS011;4479;51.162;13.906;2023-08-30T01:30:56;3.00;;;2.10;;
8885;SDS011;4479;51.162;13.906;2023-08-30T01:41:01;2.20;;;2.10;;
8885;SDS011;4479;51.162;13.906;2023-08-30T01:51:05;2.30;;;2.10;;
8885;SDS011;4479;51.162;13.906;2023-08-30T02:01:09;2.30;;;2.20;;
8885;SDS011;4479;51.162;13.906;2023-08-30T02:11:16;4.60;;;2.37;;
8885;SDS011;4479;51.162;13.906;2023-08-30T02:21:21;3.03;;;2.80;;
8885;SDS011;4479;51.162;13.906;2023-08-30T02:31:26;3.80;;;2.83;;
8885;SDS011;4479;51.162;13.906;2023-08-30T02:41:29;3.93;;;3.63;;
8885;SDS011;4479;51.162;13.906;2023-08-30T02:51:32;3.33;;;3.10;;
8885;SDS011;4479;51.162;13.906;2023-08-30T03:01:35;3.53;;;3.23;;
8885;SDS011;4479;51.162;13.906;2023-08-30T03:11:39;3.33;;;3.03;;
8885;SDS011;4479;51.162;13.906;2023-08-30T03:21:41;3.17;;;2.93;;
8885;SDS011;4479;51.162;13.906;2023-08-30T03:31:45;2.87;;;2.67;;
8885;SDS011;4479;51.162;13.906;2023-08-30T03:41:47;3.30;;;3.00;;
8885;SDS011;4479;51.162;13.906;2023-08-30T03:51:51;2.93;;;2.73;;
8885;SDS011;4479;51.162;13.906;2023-08-30T04:01:53;3.40;;;2.93;;
8885;SDS011;4479;51.162;13.906;2023-08-30T04:11:57;3.13;;;2.93;;
8885;SDS011;4479;51.162;13.906;2023-08-30T04:22:00;3.60;;;3.30;;
8885;SDS011;4479;51.162;13.906;2023-08-30T04:32:05;2.67;;;2.47;;
8885;SDS011;4479;51.162;13.906;2023-08-30T04:42:07;3.00;;;2.80;;
8885;SDS011;4479;51.162;13.906;2023-08-30T04:52:11;3.20;;;2.67;;
8885;SDS011;4479;51.162;13.906;2023-08-30T05:02:13;2.83;;;2.60;;
8885;SDS011;4479;51.162;13.906;2023-08-30T05:12:39;3.40;;;3.10;;
8885;SDS011;4479;51.162;13.906;2023-08-30T05:22:44;3.00;;;2.80;;
8885;SDS011;4479;51.162;13.906;2023-08-30T05:32:48;4.40;;;3.20;;
8885;SDS011;4479;51.162;13.906;2023-08-30T05:43:17;3.10;;;2.80;;
8885;SDS011;4479;51.162;13.906;2023-08-30T05:53:24;4.87;;;2.73;;
8885;SDS011;4479;51.162;13.906;2023-08-30T06:03:28;2.87;;;2.67;;
8885;SDS011;4479;51.162;13.906;2023-08-30T06:13:31;3.47;;;3.10;;
8885;SDS011;4479;51.162;13.906;2023-08-30T06:23:33;3.10;;;2.80;;
8885;SDS011;4479;51.162;13.906;2023-08-30T06:33:39;3.07;;;2.80;;
8885;SDS011;4479;51.162;13.906;2023-08-30T06:43:42;2.93;;;2.73;;
8885;SDS011;4479;51.162;13.906;2023-08-30T06:53:45;4.83;;;2.60;;
8885;SDS011;4479;51.162;13.906;2023-08-30T07:03:48;2.90;;;2.70;;
8885;SDS011;4479;51.162;13.906;2023-08-30T07:13:52;3.43;;;2.67;;
8885;SDS011;4479;51.162;13.906;2023-08-30T07:23:54;3.07;;;2.87;;
8885;SDS011;4479;51.162;13.906;2023-08-30T07:33:58;3.03;;;2.83;;
8885;SDS011;4479;51.162;13.906;2023-08-30T07:44:00;4.30;;;3.73;;
8885;SDS011;4479;51.162;13.906;2023-08-30T07:54:04;3.80;;;3.50;;
8885;SDS011;4479;51.162;13.906;2023-08-30T08:04:07;3.53;;;3.23;;
8885;SDS011;4479;51.162;13.906;2023-08-30T08:14:11;4.37;;;3.97;;
8885;SDS011;4479;51.162;13.906;2023-08-30T08:24:14;3.93;;;3.63;;
8885;SDS011;4479;51.162;13.906;2023-08-30T08:34:17;4.97;;;4.50;;
8885;SDS011;4479;51.162;13.906;2023-08-30T08:44:20;4.80;;;3.77;;
8885;SDS011;4479;51.162;13.906;2023-08-30T08:54:24;3.77;;;3.53;;
8885;SDS011;4479;51.162;13.906;2023-08-30T09:04:27;4.20;;;3.70;;
8885;SDS011;4479;51.162;13.906;2023-08-30T09:14:34;4.10;;;3.80;;
8885;SDS011;4479;51.162;13.906;2023-08-30T09:24:37;4.43;;;4.03;;
8885;SDS011;4479;51.162;13.906;2023-08-30T09:34:46;4.80;;;3.60;;
8885;SDS011;4479;51.162;13.906;2023-08-30T09:44:49;3.00;;;2.70;;
8885;SDS011;4479;51.162;13.906;2023-08-30T09:54:52;3.07;;;2.87;;
8885;SDS011;4479;51.162;13.906;2023-08-30T10:04:55;3.43;;;3.13;;
8885;SDS011;4479;51.162;13.906;2023-08-30T10:15:00;4.07;;;3.67;;
8885;SDS011;4479;51.162;13.906;2023-08-30T10:25:04;3.40;;;3.20;;
8885;SDS011;4479;51.162;13.906;2023-08-30T10:35:11;3.10;;;2.90;;
8885;SDS011;4479;51.162;13.906;2023-08-30T10:45:14;3.47;;;2.73;;
8885;SDS011;4479;51.162;13.906;2023-08-30T10:55:26;3.23;;;2.40;;
8885;SDS011;4479;51.162;13.906;2023-08-30T11:05:29;2.63;;;2.43;;
8885;SDS011;4479;51.162;13.906;2023-08-30T11:15:33;2.33;;;2.13;;
8885;SDS011;4479;51.162;13.906;2023-08-30T11:25:35;2.50;;;2.30;;
8885;SDS011;4479;51.162;13.906;2023-08-30T11:35:39;2.40;;;2.20;;
8885;SDS011;4479;51.162;13.906;2023-08-30T11:45:42;1.80;;;1.70;;
8885;SDS011;4479;51.162;13.906;2023-08-30T11:55:46;4.60;;;3.47;;
8885;SDS011;4479;51.162;13.906;2023-08-30T12:05:49;2.10;;;1.87;;
8885;SDS011;4479;51.162;13.906;2023-08-30T12:15:53;2.00;;;1.90;;
8885;SDS011;4479;51.162;13.906;2023-08-30T12:25:57;1.77;;;1.30;;
8885;SDS011;4479;51.162;13.906;2023-08-30T12:36:02;1.70;;;1.50;;
8885;SDS011;4479;51.162;13.906;2023-08-30T12:46:05;1.40;;;1.30;;
8885;SDS011;4479;51.162;13.906;2023-08-30T12:56:09;1.40;;;1.30;;
8885;SDS011;4479;51.162;13.906;2023-08-30T13:06:12;1.50;;;1.40;;
8885;SDS011;4479;51.162;13.906;2023-08-30T13:16:15;1.73;;;1.40;;
8885;SDS011;4479;51.162;13.906;2023-08-30T13:26:18;1.50;;;1.37;;
8885;SDS011;4479;51.162;13.906;2023-08-30T13:36:22;1.40;;;1.30;;
8885;SDS011;4479;51.162;13.906;2023-08-30T13:46:24;1.40;;;1.30;;
8885;SDS011;4479;51.162;13.906;2023-08-30T13:56:28;1.50;;;1.40;;
8885;SDS011;4479;51.162;13.906;2023-08-30T14:06:32;1.87;;;1.40;;
8885;SDS011;4479;51.162;13.906;2023-08-30T14:16:36;1.87;;;1.67;;
8885;SDS011;4479;51.162;13.906;2023-08-30T14:26:38;1.40;;;1.30;;
8885;SDS011;4479;51.162;13.906;2023-08-30T14:36:42;1.40;;;1.30;;
8885;SDS011;4479;51.162;13.906;2023-08-30T14:46:46;1.70;;;1.43;;
8885;SDS011;4479;51.162;13.906;2023-08-30T14:56:51;2.13;;;1.40;;
8885;SDS011;4479;51.162;13.906;2023-08-30T15:06:53;1.33;;;1.23;;
8885;SDS011;4479;51.162;13.906;2023-08-30T15:16:57;1.67;;;1.37;;
8885;SDS011;4479;51.162;13.906;2023-08-30T15:27:00;1.23;;;1.10;;
8885;SDS011;4479;51.162;13.906;2023-08-30T15:37:04;1.50;;;1.40;;
8885;SDS011;4479;51.162;13.906;2023-08-30T15:47:06;1.70;;;1.60;;
8885;SDS011;4479;51.162;13.906;2023-08-30T15:57:10;1.87;;;1.60;;
8885;SDS011;4479;51.162;13.906;2023-08-30T16:07:12;3.03;;;1.50;;
8885;SDS011;4479;51.162;13.906;2023-08-30T16:17:16;1.67;;;1.57;;
8885;SDS011;4479;51.162;13.906;2023-08-30T16:27:18;3.40;;;1.70;;
8885;SDS011;4479;51.162;13.906;2023-08-30T16:37:22;1.67;;;1.57;;
8885;SDS011;4479;51.162;13.906;2023-08-30T16:47:25;1.90;;;1.80;;
8885;SDS011;4479;51.162;13.906;2023-08-30T16:57:29;1.73;;;1.57;;
8885;SDS011;4479;51.162;13.906;2023-08-30T17:07:31;2.00;;;1.77;;
8885;SDS011;4479;51.162;13.906;2023-08-30T17:17:35;1.83;;;1.73;;
8885;SDS011;4479;51.162;13.906;2023-08-30T17:27:37;2.43;;;1.60;;
8885;SDS011;4479;51.162;13.906;2023-08-30T17:37:44;1.70;;;1.60;;
8885;SDS011;4479;51.162;13.906;2023-08-30T17:47:46;2.03;;;1.80;;
8885;SDS011;4479;51.162;13.906;2023-08-30T17:57:50;3.87;;;2.03;;
8885;SDS011;4479;51.162;13.906;2023-08-30T18:07:52;2.80;;;2.17;;
8885;SDS011;4479;51.162;13.906;2023-08-30T18:17:57;2.83;;;1.90;;
8885;SDS011;4479;51.162;13.906;2023-08-30T18:27:59;2.30;;;2.10;;
8885;SDS011;4479;51.162;13.906;2023-08-30T18:38:03;2.47;;;2.23;;
8885;SDS011;4479;51.162;13.906;2023-08-30T18:48:06;2.60;;;2.40;;
8885;SDS011;4479;51.162;13.906;2023-08-30T18:58:10;2.30;;;2.10;;
8885;SDS011;4479;51.162;13.906;2023-08-30T19:08:12;2.23;;;2.03;;
8885;SDS011;4479;51.162;13.906;2023-08-30T19:18:16;2.43;;;1.97;;
8885;SDS011;4479;51.162;13.906;2023-08-30T19:28:18;2.10;;;2.00;;
8885;SDS011;4479;51.162;13.906;2023-08-30T19:38:22;2.53;;;2.30;;
8885;SDS011;4479;51.162;13.906;2023-08-30T19:48:25;2.60;;;2.40;;
8885;SDS011;4479;51.162;13.906;2023-08-30T19:58:29;2.33;;;2.20;;
8885;SDS011;4479;51.162;13.906;2023-08-30T20:08:31;2.60;;;2.40;;
8885;SDS011;4479;51.162;13.906;2023-08-30T20:18:35;2.90;;;2.67;;
8885;SDS011;4479;51.162;13.906;2023-08-30T20:28:37;2.30;;;2.17;;
8885;SDS011;4479;51.162;13.906;2023-08-30T20:38:40;2.57;;;2.37;;
8885;SDS011;4479;51.162;13.906;2023-08-30T20:48:42;2.50;;;2.30;;
8885;SDS011;4479;51.162;13.906;2023-08-30T20:58:46;3.73;;;2.50;;
8885;SDS011;4479;51.162;13.906;2023-08-30T21:08:49;3.97;;;2.37;;
8885;SDS011;4479;51.162;13.906;2023-08-30T21:18:53;2.77;;;2.57;;
8885;SDS011;4479;51.162;13.906;2023-08-30T21:28:55;3.97;;;3.67;;
8885;SDS011;4479;51.162;13.906;2023-08-30T21:39:03;3.00;;;2.73;;
8885;SDS011;4479;51.162;13.906;2023-08-30T21:49:14;2.77;;;2.57;;
8885;SDS011;4479;51.162;13.906;2023-08-30T21:59:17;2.90;;;2.70;;
8885;SDS011;4479;51.162;13.906;2023-08-30T22:09:21;3.17;;;2.27;;
8885;SDS011;4479;51.162;13.906;2023-08-30T22:19:25;2.70;;;2.50;;
8885;SDS011;4479;51.162;13.906;2023-08-30T22:29:27;2.33;;;2.13;;
8885;SDS011;4479;51.162;13.906;2023-08-30T22:39:31;3.43;;;2.20;;
8885;SDS011;4479;51.162;13.906;2023-08-30T22:49:34;2.50;;;2.30;;
8885;SDS011;4479;51.162;13.906;2023-08-30T22:59:38;2.53;;;2.33;;
8885;SDS011;4479;51.162;13.906;2023-08-30T23:09:40;2.60;;;2.40;;
8885;SDS011;4479;51.162;13.906;2023-08-30T23:19:44;2.60;;;2.40;;
8885;SDS011;4479;51.162;13.906;2023-08-30T23:29:47;2.53;;;2.33;;
8885;SDS011;4479;51.162;13.906;2023-08-30T23:39:51;2.53;;;2.33;;
8885;SDS011;4479;51.162;13.906;2023-08-30T23:49:53;2.70;;;2.50;;
8885;SDS011;4479;51.162;13.906;2023-08-30T23:59:57;2.77;;;2.57;;
